sensor_id;sensor_type;location;lat;lon;timestamp;pressure;altitude;pressure_sealevel;temperature;humidity
11878;BME280;5998;42.676;23.268;2024-01-30T00:01:51;96752.84;;;-0.51;100.00
11878;BME280;5998;42.676;23.268;2024-01-30T00:04:18;96757.34;;;-0.52;100.00
11878;BME280;5998;42.676;23.268;2024-01-30T00:06:45;96753.00;;;-0.46;100.00
11878;BME280;5998;42.676;23.268;2024-01-30T00:09:13;96745.53;;;-0.68;100.00
11878;BME280;5998;42.676;23.268;2024-01-30T00:11:40;96751.31;;;-0.59;100.00
11878;BME280;5998;42.676;23.268;2024-01-30T00:14:07;96757.56;;;-0.53;100.00
11878;BME280;5998;42.676;23.268;2024-01-30T00:16:33;96757.13;;;-0.69;100.00
11878;BME280;5998;42.676;23.268;2024-01-30T00:19:00;96759.00;;;-0.69;100.00
11878;BME280;5998;42.676;23.268;2024-01-30T00:21:28;96765.81;;;-0.62;100.00
11878;BME280;5998;42.676;23.268;2024-01-30T00:23:54;96764.72;;;-0.72;100.00
11878;BME280;5998;42.676;23.268;2024-01-30T00:26:22;96762.16;;;-0.61;100.00
11878;BME280;5998;42.676;23.268;2024-01-30T00:28:49;96760.28;;;-0.42;100.00
11878;BME280;5998;42.676;23.268;2024-01-30T00:31:15;96755.84;;;-0.30;100.00
11878;BME280;5998;42.676;23.268;2024-01-30T00:33:43;96758.22;;;-0.40;100.00
11878;BME280;5998;42.676;23.268;2024-01-30T00:36:10;96753.88;;;-0.34;100.00
11878;BME280;5998;42.676;23.268;2024-01-30T00:38:37;96758.78;;;-0.20;100.00
11878;BME280;5998;42.676;23.268;2024-01-30T00:41:04;96760.16;;;-0.17;100.00
11878;BME280;5998;42.676;23.268;2024-01-30T00:43:32;96752.59;;;-0.02;100.00
11878;BME280;5998;42.676;23.268;2024-01-30T00:45:59;96750.00;;;0.10;100.00
11878;BME280;5998;42.676;23.268;2024-01-30T00:48:25;96749.31;;;0.14;100.00
11878;BME280;5998;42.676;23.268;2024-01-30T00:50:52;96755.09;;;0.23;100.00
11878;BME280;5998;42.676;23.268;2024-01-30T00:53:19;96755.00;;;0.29;100.00
11878;BME280;5998;42.676;23.268;2024-01-30T00:55:46;96748.91;;;0.40;100.00
11878;BME280;5998;42.676;23.268;2024-01-30T00:58:13;96749.72;;;0.41;100.00
11878;BME280;5998;42.676;23.268;2024-01-30T01:00:41;96754.78;;;0.42;100.00
11878;BME280;5998;42.676;23.268;2024-01-30T01:03:07;96745.34;;;0.46;100.00
11878;BME280;5998;42.676;23.268;2024-01-30T01:05:34;96753.31;;;0.46;100.00
11878;BME280;5998;42.676;23.268;2024-01-30T01:08:01;96751.69;;;0.45;100.00
11878;BME280;5998;42.676;23.268;2024-01-30T01:10:27;96748.22;;;0.45;100.00
11878;BME280;5998;42.676;23.268;2024-01-30T01:12:54;96743.63;;;0.40;100.00
11878;BME280;5998;42.676;23.268;2024-01-30T01:15:20;96728.03;;;0.21;100.00
11878;BME280;5998;42.676;23.268;2024-01-30T01:17:48;96743.94;;;0.32;100.00
11878;BME280;5998;42.676;23.268;2024-01-30T01:20:15;96745.31;;;0.23;100.00
11878;BME280;5998;42.676;23.268;2024-01-30T01:22:41;96751.75;;;0.16;100.00
11878;BME280;5998;42.676;23.268;2024-01-30T01:25:08;96747.25;;;0.16;100.00
11878;BME280;5998;42.676;23.268;2024-01-30T01:27:35;96749.22;;;0.21;100.00
11878;BME280;5998;42.676;23.268;2024-01-30T01:30:08;96744.16;;;0.31;100.00
11878;BME280;5998;42.676;23.268;2024-01-30T01:32:35;96745.50;;;0.10;100.00
11878;BME280;5998;42.676;23.268;2024-01-30T01:35:05;96755.97;;;0.05;100.00
11878;BME280;5998;42.676;23.268;2024-01-30T01:37:32;96748.97;;;0.11;100.00
11878;BME280;5998;42.676;23.268;2024-01-30T01:39:59;96755.00;;;-0.12;100.00
11878;BME280;5998;42.676;23.268;2024-01-30T01:42:26;96751.13;;;0.02;100.00
11878;BME280;5998;42.676;23.268;2024-01-30T01:44:53;96756.75;;;0.06;100.00
11878;BME280;5998;42.676;23.268;2024-01-30T01:47:20;96752.03;;;-0.04;100.00
11878;BME280;5998;42.676;23.268;2024-01-30T01:49:47;96754.06;;;-0.18;100.00
11878;BME280;5998;42.676;23.268;2024-01-30T01:52:15;96749.88;;;-0.25;100.00
11878;BME280;5998;42.676;23.268;2024-01-30T01:54:43;96757.06;;;-0.14;100.00
11878;BME280;5998;42.676;23.268;2024-01-30T01:57:10;96750.47;;;-0.23;100.00
11878;BME280;5998;42.676;23.268;2024-01-30T01:59:36;96754.75;;;-0.40;100.00
11878;BME280;5998;42.676;23.268;2024-01-30T02:02:04;96757.25;;;-0.45;100.00
11878;BME280;5998;42.676;23.268;2024-01-30T02:04:32;96757.81;;;-0.55;100.00
11878;BME280;5998;42.676;23.268;2024-01-30T02:06:59;96752.72;;;-0.56;100.00
11878;BME280;5998;42.676;23.268;2024-01-30T02:09:27;96757.34;;;-0.52;100.00
11878;BME280;5998;42.676;23.268;2024-01-30T02:11:54;96763.59;;;-0.65;100.00
11878;BME280;5998;42.676;23.268;2024-01-30T02:14:21;96765.16;;;-0.75;100.00
11878;BME280;5998;42.676;23.268;2024-01-30T02:16:48;96762.94;;;-0.78;100.00
11878;BME280;5998;42.676;23.268;2024-01-30T02:19:14;96754.56;;;-0.75;100.00
11878;BME280;5998;42.676;23.268;2024-01-30T02:21:43;96767.66;;;-0.80;100.00
11878;BME280;5998;42.676;23.268;2024-01-30T02:24:10;96763.53;;;-0.76;100.00
11878;BME280;5998;42.676;23.268;2024-01-30T02:26:36;96754.13;;;-0.90;100.00
11878;BME280;5998;42.676;23.268;2024-01-30T02:29:03;96750.69;;;-0.91;100.00
11878;BME280;5998;42.676;23.268;2024-01-30T02:31:31;96747.72;;;-1.01;100.00
11878;BME280;5998;42.676;23.268;2024-01-30T02:33:58;96747.56;;;-0.88;100.00
11878;BME280;5998;42.676;23.268;2024-01-30T02:36:24;96750.91;;;-0.92;100.00
11878;BME280;5998;42.676;23.268;2024-01-30T02:38:52;96750.97;;;-0.81;100.00
11878;BME280;5998;42.676;23.268;2024-01-30T02:41:19;96739.38;;;-0.80;100.00
11878;BME280;5998;42.676;23.268;2024-01-30T02:43:46;96747.97;;;-0.66;100.00
11878;BME280;5998;42.676;23.268;2024-01-30T02:46:13;96752.44;;;-0.67;100.00
11878;BME280;5998;42.676;23.268;2024-01-30T02:48:40;96731.78;;;-0.76;100.00
11878;BME280;5998;42.676;23.268;2024-01-30T02:51:06;96755.97;;;-0.73;100.00
11878;BME280;5998;42.676;23.268;2024-01-30T02:53:33;96753.03;;;-0.83;100.00
11878;BME280;5998;42.676;23.268;2024-01-30T02:56:02;96753.53;;;-0.74;100.00
11878;BME280;5998;42.676;23.268;2024-01-30T02:58:28;96758.88;;;-0.63;100.00
11878;BME280;5998;42.676;23.268;2024-01-30T03:00:55;96758.16;;;-0.70;100.00
11878;BME280;5998;42.676;23.268;2024-01-30T03:03:22;96754.03;;;-0.66;100.00
11878;BME280;5998;42.676;23.268;2024-01-30T03:05:48;96746.28;;;-0.61;100.00
11878;BME280;5998;42.676;23.268;2024-01-30T03:08:15;96744.66;;;-0.62;100.00
11878;BME280;5998;42.676;23.268;2024-01-30T03:10:42;96749.88;;;-0.55;100.00
11878;BME280;5998;42.676;23.268;2024-01-30T03:13:10;96741.31;;;-0.57;100.00
11878;BME280;5998;42.676;23.268;2024-01-30T03:15:36;96741.25;;;-0.50;100.00
11878;BME280;5998;42.676;23.268;2024-01-30T03:18:03;96744.03;;;-0.45;100.00
11878;BME280;5998;42.676;23.268;2024-01-30T03:20:30;96738.50;;;-0.44;100.00
11878;BME280;5998;42.676;23.268;2024-01-30T03:22:59;96738.50;;;-0.44;100.00
11878;BME280;5998;42.676;23.268;2024-01-30T03:25:26;96744.56;;;-0.55;100.00
11878;BME280;5998;42.676;23.268;2024-01-30T03:27:53;96739.63;;;-0.51;100.00
11878;BME280;5998;42.676;23.268;2024-01-30T03:30:21;96744.19;;;-0.58;100.00
11878;BME280;5998;42.676;23.268;2024-01-30T03:32:48;96744.19;;;-0.58;100.00
11878;BME280;5998;42.676;23.268;2024-01-30T03:35:15;96741.41;;;-0.64;100.00
11878;BME280;5998;42.676;23.268;2024-01-30T03:37:42;96732.56;;;-0.57;100.00
11878;BME280;5998;42.676;23.268;2024-01-30T03:40:09;96740.16;;;-0.61;100.00
11878;BME280;5998;42.676;23.268;2024-01-30T03:42:36;96738.16;;;-0.66;100.00
11878;BME280;5998;42.676;23.268;2024-01-30T03:45:04;96737.16;;;-0.65;100.00
11878;BME280;5998;42.676;23.268;2024-01-30T03:47:32;96727.75;;;-0.61;100.00
11878;BME280;5998;42.676;23.268;2024-01-30T03:49:59;96734.00;;;-0.55;100.00
11878;BME280;5998;42.676;23.268;2024-01-30T03:52:25;96730.09;;;-0.71;100.00
11878;BME280;5998;42.676;23.268;2024-01-30T03:54:52;96738.97;;;-0.65;100.00
11878;BME280;5998;42.676;23.268;2024-01-30T03:57:19;96725.38;;;-0.69;100.00
11878;BME280;5998;42.676;23.268;2024-01-30T03:59:45;96726.06;;;-0.73;100.00
11878;BME280;5998;42.676;23.268;2024-01-30T04:02:12;96732.59;;;-0.76;100.00
11878;BME280;5998;42.676;23.268;2024-01-30T04:04:40;96727.06;;;-0.74;100.00
11878;BME280;5998;42.676;23.268;2024-01-30T04:07:07;96725.56;;;-0.64;100.00
11878;BME280;5998;42.676;23.268;2024-01-30T04:09:33;96722.03;;;-0.76;100.00
11878;BME280;5998;42.676;23.268;2024-01-30T04:12:00;96723.41;;;-0.73;100.00
11878;BME280;5998;42.676;23.268;2024-01-30T04:14:28;96732.16;;;-0.73;100.00
11878;BME280;5998;42.676;23.268;2024-01-30T04:16:55;96720.56;;;-0.72;100.00
11878;BME280;5998;42.676;23.268;2024-01-30T04:19:21;96728.94;;;-0.75;100.00
11878;BME280;5998;42.676;23.268;2024-01-30T04:21:49;96726.88;;;-0.73;100.00
11878;BME280;5998;42.676;23.268;2024-01-30T04:24:16;96725.78;;;-0.83;100.00
11878;BME280;5998;42.676;23.268;2024-01-30T04:26:44;96722.91;;;-0.82;100.00
11878;BME280;5998;42.676;23.268;2024-01-30T04:29:10;96732.22;;;-0.79;100.00
11878;BME280;5998;42.676;23.268;2024-01-30T04:31:37;96731.47;;;-0.68;100.00
11878;BME280;5998;42.676;23.268;2024-01-30T04:34:04;96734.13;;;-0.68;100.00
11878;BME280;5998;42.676;23.268;2024-01-30T04:36:31;96734.06;;;-0.62;100.00
11878;BME280;5998;42.676;23.268;2024-01-30T04:38:59;96737.66;;;-0.56;100.00
11878;BME280;5998;42.676;23.268;2024-01-30T04:41:25;96737.00;;;-0.70;100.00
11878;BME280;5998;42.676;23.268;2024-01-30T04:43:56;96736.56;;;-0.67;100.00
11878;BME280;5998;42.676;23.268;2024-01-30T04:46:23;96741.94;;;-0.73;100.00
11878;BME280;5998;42.676;23.268;2024-01-30T04:48:50;96740.06;;;-0.54;100.00
11878;BME280;5998;42.676;23.268;2024-01-30T04:51:16;96744.78;;;-0.56;100.00
11878;BME280;5998;42.676;23.268;2024-01-30T04:53:43;96757.59;;;-0.72;100.00
11878;BME280;5998;42.676;23.268;2024-01-30T04:56:11;96764.09;;;-0.74;100.00
11878;BME280;5998;42.676;23.268;2024-01-30T04:58:38;96755.72;;;-0.71;100.00
11878;BME280;5998;42.676;23.268;2024-01-30T05:01:04;96765.44;;;-0.83;100.00
11878;BME280;5998;42.676;23.268;2024-01-30T05:03:33;96759.22;;;-0.89;100.00
11878;BME280;5998;42.676;23.268;2024-01-30T05:06:00;96757.28;;;-1.00;100.00
11878;BME280;5998;42.676;23.268;2024-01-30T05:08:26;96766.38;;;-0.96;100.00
11878;BME280;5998;42.676;23.268;2024-01-30T05:10:53;96769.94;;;-1.02;100.00
11878;BME280;5998;42.676;23.268;2024-01-30T05:13:21;96769.69;;;-1.00;100.00
11878;BME280;5998;42.676;23.268;2024-01-30T05:15:47;96769.25;;;-0.97;100.00
11878;BME280;5998;42.676;23.268;2024-01-30T05:18:14;96771.91;;;-0.97;100.00
11878;BME280;5998;42.676;23.268;2024-01-30T05:20:41;96770.06;;;-0.97;100.00
11878;BME280;5998;42.676;23.268;2024-01-30T05:23:08;96775.38;;;-0.97;100.00
11878;BME280;5998;42.676;23.268;2024-01-30T05:25:34;96777.38;;;-0.99;100.00
11878;BME280;5998;42.676;23.268;2024-01-30T05:28:01;96775.50;;;-0.92;100.00
11878;BME280;5998;42.676;23.268;2024-01-30T05:30:29;96773.22;;;-1.06;100.00
11878;BME280;5998;42.676;23.268;2024-01-30T05:32:56;96770.34;;;-1.05;100.00
11878;BME280;5998;42.676;23.268;2024-01-30T05:35:22;96767.72;;;-1.05;100.00
11878;BME280;5998;42.676;23.268;2024-01-30T05:37:49;96770.13;;;-1.03;100.00
11878;BME280;5998;42.676;23.268;2024-01-30T05:40:16;96773.22;;;-1.06;100.00
11878;BME280;5998;42.676;23.268;2024-01-30T05:42:43;96771.53;;;-1.01;100.00
11878;BME280;5998;42.676;23.268;2024-01-30T05:45:09;96771.03;;;-0.91;100.00
11878;BME280;5998;42.676;23.268;2024-01-30T05:47:37;96764.94;;;-0.92;100.00
11878;BME280;5998;42.676;23.268;2024-01-30T05:50:05;96763.59;;;-1.01;100.00
11878;BME280;5998;42.676;23.268;2024-01-30T05:52:32;96762.88;;;-0.90;100.00
11878;BME280;5998;42.676;23.268;2024-01-30T05:54:59;96770.38;;;-0.87;100.00
11878;BME280;5998;42.676;23.268;2024-01-30T05:57:26;96763.75;;;-0.96;100.00
11878;BME280;5998;42.676;23.268;2024-01-30T05:59:52;96764.50;;;-0.89;100.00
11878;BME280;5998;42.676;23.268;2024-01-30T06:02:19;96769.72;;;-0.64;100.00
11878;BME280;5998;42.676;23.268;2024-01-30T06:04:47;96763.44;;;-0.51;100.00
11878;BME280;5998;42.676;23.268;2024-01-30T06:07:14;96771.84;;;-0.91;100.00
11878;BME280;5998;42.676;23.268;2024-01-30T06:09:40;96765.50;;;-0.90;100.00
11878;BME280;5998;42.676;23.268;2024-01-30T06:12:07;96767.00;;;-0.94;100.00
11878;BME280;5998;42.676;23.268;2024-01-30T06:14:37;96775.34;;;-0.79;100.00
11878;BME280;5998;42.676;23.268;2024-01-30T06:17:03;96777.38;;;-0.99;100.00
11878;BME280;5998;42.676;23.268;2024-01-30T06:19:30;96776.50;;;-1.11;100.00
11878;BME280;5998;42.676;23.268;2024-01-30T06:21:58;96777.81;;;-1.20;100.00
11878;BME280;5998;42.676;23.268;2024-01-30T06:24:25;96775.28;;;-1.08;100.00
11878;BME280;5998;42.676;23.268;2024-01-30T06:26:53;96766.81;;;-0.99;100.00
11878;BME280;5998;42.676;23.268;2024-01-30T06:29:19;96775.50;;;-1.10;100.00
11878;BME280;5998;42.676;23.268;2024-01-30T06:31:46;96786.97;;;-0.98;100.00
11878;BME280;5998;42.676;23.268;2024-01-30T06:34:13;96784.03;;;-0.90;100.00
11878;BME280;5998;42.676;23.268;2024-01-30T06:36:39;96769.84;;;-0.95;100.00
11878;BME280;5998;42.676;23.268;2024-01-30T06:39:07;96772.56;;;-0.84;100.00
11878;BME280;5998;42.676;23.268;2024-01-30T06:41:34;96781.22;;;-0.77;100.00
11878;BME280;5998;42.676;23.268;2024-01-30T06:44:02;96778.50;;;-0.52;100.00
11878;BME280;5998;42.676;23.268;2024-01-30T06:46:29;96780.63;;;-0.42;100.00
11878;BME280;5998;42.676;23.268;2024-01-30T06:48:55;96772.47;;;-0.41;100.00
11878;BME280;5998;42.676;23.268;2024-01-30T06:51:22;96775.28;;;-0.54;100.00
11878;BME280;5998;42.676;23.268;2024-01-30T06:53:49;96776.97;;;-0.60;100.00
11878;BME280;5998;42.676;23.268;2024-01-30T06:56:17;96781.34;;;-0.35;100.00
11878;BME280;5998;42.676;23.268;2024-01-30T06:58:46;96794.28;;;-0.27;100.00
11878;BME280;5998;42.676;23.268;2024-01-30T07:01:13;96780.53;;;-0.18;100.00
11878;BME280;5998;42.676;23.268;2024-01-30T07:03:40;96785.28;;;-0.08;100.00
11878;BME280;5998;42.676;23.268;2024-01-30T07:06:06;96789.53;;;-0.07;100.00
11878;BME280;5998;42.676;23.268;2024-01-30T07:08:33;96787.91;;;-0.08;100.00
11878;BME280;5998;42.676;23.268;2024-01-30T07:11:00;96783.72;;;0.03;100.00
11878;BME280;5998;42.676;23.268;2024-01-30T07:13:28;96767.75;;;0.21;100.00
11878;BME280;5998;42.676;23.268;2024-01-30T07:15:55;96783.56;;;0.39;100.00
11878;BME280;5998;42.676;23.268;2024-01-30T07:18:21;96782.34;;;0.53;100.00
11878;BME280;5998;42.676;23.268;2024-01-30T07:20:48;96782.91;;;0.55;100.00
11878;BME280;5998;42.676;23.268;2024-01-30T07:23:15;96779.47;;;0.54;100.00
11878;BME280;5998;42.676;23.268;2024-01-30T07:25:43;96786.75;;;0.82;100.00
11878;BME280;5998;42.676;23.268;2024-01-30T07:28:11;96790.31;;;0.76;100.00
11878;BME280;5998;42.676;23.268;2024-01-30T07:30:40;96787.66;;;1.11;100.00
11878;BME280;5998;42.676;23.268;2024-01-30T07:33:07;96785.81;;;1.23;100.00
11878;BME280;5998;42.676;23.268;2024-01-30T07:35:35;96785.31;;;1.49;100.00
11878;BME280;5998;42.676;23.268;2024-01-30T07:38:02;96776.81;;;1.75;100.00
11878;BME280;5998;42.676;23.268;2024-01-30T07:40:29;96744.84;;;1.31;100.00
11878;BME280;5998;42.676;23.268;2024-01-30T07:42:55;96783.84;;;1.30;100.00
11878;BME280;5998;42.676;23.268;2024-01-30T07:45:22;96777.44;;;1.54;100.00
11878;BME280;5998;42.676;23.268;2024-01-30T07:47:51;96783.44;;;1.90;100.00
11878;BME280;5998;42.676;23.268;2024-01-30T07:50:18;96770.75;;;1.92;100.00
11878;BME280;5998;42.676;23.268;2024-01-30T07:52:44;96774.47;;;1.79;100.00
11878;BME280;5998;42.676;23.268;2024-01-30T07:55:11;96776.16;;;1.57;100.00
11878;BME280;5998;42.676;23.268;2024-01-30T07:57:38;96762.53;;;1.65;100.00
11878;BME280;5998;42.676;23.268;2024-01-30T08:00:06;96777.19;;;1.67;100.00
11878;BME280;5998;42.676;23.268;2024-01-30T08:02:33;96775.63;;;1.83;100.00
11878;BME280;5998;42.676;23.268;2024-01-30T08:05:01;96779.09;;;2.12;100.00
11878;BME280;5998;42.676;23.268;2024-01-30T08:07:28;96774.88;;;2.27;100.00
11878;BME280;5998;42.676;23.268;2024-01-30T08:09:56;96768.47;;;2.12;100.00
11878;BME280;5998;42.676;23.268;2024-01-30T08:12:22;96764.94;;;2.23;100.00
11878;BME280;5998;42.676;23.268;2024-01-30T08:14:49;96770.53;;;2.38;100.00
11878;BME280;5998;42.676;23.268;2024-01-30T08:17:16;96770.69;;;2.48;100.00
11878;BME280;5998;42.676;23.268;2024-01-30T08:19:42;96768.31;;;2.63;100.00
11878;BME280;5998;42.676;23.268;2024-01-30T08:22:11;96763.28;;;2.50;100.00
11878;BME280;5998;42.676;23.268;2024-01-30T08:24:38;96764.25;;;1.99;100.00
11878;BME280;5998;42.676;23.268;2024-01-30T08:27:06;96768.69;;;2.38;100.00
11878;BME280;5998;42.676;23.268;2024-01-30T08:29:34;96773.16;;;2.21;100.00
11878;BME280;5998;42.676;23.268;2024-01-30T08:32:01;96774.38;;;2.14;100.00
11878;BME280;5998;42.676;23.268;2024-01-30T08:34:28;96776.91;;;2.09;100.00
11878;BME280;5998;42.676;23.268;2024-01-30T08:36:55;96779.63;;;1.97;100.00
11878;BME280;5998;42.676;23.268;2024-01-30T08:39:23;96782.94;;;2.04;100.00
11878;BME280;5998;42.676;23.268;2024-01-30T08:41:49;96777.44;;;1.94;100.00
11878;BME280;5998;42.676;23.268;2024-01-30T08:44:16;96779.84;;;2.24;100.00
11878;BME280;5998;42.676;23.268;2024-01-30T08:46:43;96778.78;;;2.08;100.00
11878;BME280;5998;42.676;23.268;2024-01-30T08:49:11;96789.72;;;2.12;100.00
11878;BME280;5998;42.676;23.268;2024-01-30T08:51:38;96782.28;;;1.97;100.00
11878;BME280;5998;42.676;23.268;2024-01-30T08:54:05;96788.53;;;1.91;100.00
11878;BME280;5998;42.676;23.268;2024-01-30T08:56:33;96785.41;;;1.94;100.00
11878;BME280;5998;42.676;23.268;2024-01-30T08:58:59;96795.09;;;1.60;100.00
11878;BME280;5998;42.676;23.268;2024-01-30T09:01:26;96797.03;;;1.65;100.00
11878;BME280;5998;42.676;23.268;2024-01-30T09:03:53;96798.03;;;1.36;100.00
11878;BME280;5998;42.676;23.268;2024-01-30T09:06:20;96801.84;;;1.28;100.00
11878;BME280;5998;42.676;23.268;2024-01-30T09:08:46;96798.75;;;1.31;100.00
11878;BME280;5998;42.676;23.268;2024-01-30T09:11:14;96800.00;;;1.17;100.00
11878;BME280;5998;42.676;23.268;2024-01-30T09:13:43;96802.31;;;1.02;100.00
11878;BME280;5998;42.676;23.268;2024-01-30T09:16:10;96797.59;;;1.04;100.00
11878;BME280;5998;42.676;23.268;2024-01-30T09:18:37;96793.31;;;1.14;100.00
11878;BME280;5998;42.676;23.268;2024-01-30T09:21:04;96777.97;;;1.28;100.00
11878;BME280;5998;42.676;23.268;2024-01-30T09:23:31;96774.88;;;1.08;100.00
11878;BME280;5998;42.676;23.268;2024-01-30T09:25:57;96777.50;;;1.31;100.00
11878;BME280;5998;42.676;23.268;2024-01-30T09:28:24;96786.16;;;1.27;100.00
11878;BME280;5998;42.676;23.268;2024-01-30T09:30:53;96776.91;;;1.41;100.00
11878;BME280;5998;42.676;23.268;2024-01-30T09:33:20;96776.69;;;1.42;100.00
11878;BME280;5998;42.676;23.268;2024-01-30T09:35:46;96760.84;;;1.59;100.00
11878;BME280;5998;42.676;23.268;2024-01-30T09:38:13;96774.41;;;1.62;100.00
11878;BME280;5998;42.676;23.268;2024-01-30T09:40:40;96771.75;;;1.62;100.00
11878;BME280;5998;42.676;23.268;2024-01-30T09:43:07;96776.03;;;1.24;100.00
11878;BME280;5998;42.676;23.268;2024-01-30T09:45:35;96766.81;;;1.03;100.00
11878;BME280;5998;42.676;23.268;2024-01-30T09:48:03;96775.00;;;1.01;100.00
11878;BME280;5998;42.676;23.268;2024-01-30T09:50:30;96784.53;;;0.91;100.00
11878;BME280;5998;42.676;23.268;2024-01-30T09:52:58;96770.03;;;1.05;100.00
11878;BME280;5998;42.676;23.268;2024-01-30T09:55:26;96767.81;;;1.02;100.00
11878;BME280;5998;42.676;23.268;2024-01-30T09:57:53;96765.56;;;0.82;100.00
11878;BME280;5998;42.676;23.268;2024-01-30T10:00:19;96759.53;;;0.87;100.00
11878;BME280;5998;42.676;23.268;2024-01-30T10:02:48;96750.66;;;0.81;100.00
11878;BME280;5998;42.676;23.268;2024-01-30T10:05:19;96747.41;;;0.91;100.00
11878;BME280;5998;42.676;23.268;2024-01-30T10:07:56;96766.78;;;1.14;100.00
11878;BME280;5998;42.676;23.268;2024-01-30T10:10:24;96761.25;;;1.04;100.00
11878;BME280;5998;42.676;23.268;2024-01-30T10:12:51;96760.00;;;1.07;100.00
11878;BME280;5998;42.676;23.268;2024-01-30T10:15:18;96748.94;;;0.98;100.00
11878;BME280;5998;42.676;23.268;2024-01-30T10:17:44;96750.41;;;1.06;100.00
11878;BME280;5998;42.676;23.268;2024-01-30T10:20:12;96742.84;;;1.38;100.00
11878;BME280;5998;42.676;23.268;2024-01-30T10:22:41;96750.25;;;1.36;100.00
11878;BME280;5998;42.676;23.268;2024-01-30T10:25:09;96754.81;;;1.52;100.00
11878;BME280;5998;42.676;23.268;2024-01-30T10:27:36;96727.97;;;1.76;100.00
11878;BME280;5998;42.676;23.268;2024-01-30T10:30:05;96746.00;;;1.74;100.00
11878;BME280;5998;42.676;23.268;2024-01-30T10:32:32;96752.41;;;1.62;100.00
11878;BME280;5998;42.676;23.268;2024-01-30T10:34:59;96748.78;;;1.28;100.00
11878;BME280;5998;42.676;23.268;2024-01-30T10:37:26;96763.88;;;1.39;100.00
11878;BME280;5998;42.676;23.268;2024-01-30T10:40:02;96749.72;;;1.22;100.00
11878;BME280;5998;42.676;23.268;2024-01-30T10:42:32;96753.06;;;1.29;100.00
11878;BME280;5998;42.676;23.268;2024-01-30T10:45:06;96751.53;;;1.33;100.00
11878;BME280;5998;42.676;23.268;2024-01-30T10:47:35;96741.38;;;1.30;100.00
11878;BME280;5998;42.676;23.268;2024-01-30T10:50:02;96734.78;;;1.44;100.00
11878;BME280;5998;42.676;23.268;2024-01-30T10:52:29;96737.63;;;1.54;100.00
11878;BME280;5998;42.676;23.268;2024-01-30T10:54:59;96731.94;;;1.62;100.00
11878;BME280;5998;42.676;23.268;2024-01-30T10:57:27;96722.84;;;1.87;100.00
11878;BME280;5998;42.676;23.268;2024-01-30T10:59:56;96724.00;;;2.07;100.00
11878;BME280;5998;42.676;23.268;2024-01-30T11:02:24;96724.03;;;2.24;100.00
11878;BME280;5998;42.676;23.268;2024-01-30T11:04:56;96718.47;;;2.42;100.00
11878;BME280;5998;42.676;23.268;2024-01-30T11:07:24;96707.13;;;2.80;100.00
11878;BME280;5998;42.676;23.268;2024-01-30T11:09:52;96712.38;;;2.58;100.00
11878;BME280;5998;42.676;23.268;2024-01-30T11:12:23;96711.25;;;2.54;100.00
11878;BME280;5998;42.676;23.268;2024-01-30T11:15:01;96710.50;;;2.59;100.00
11878;BME280;5998;42.676;23.268;2024-01-30T11:17:40;96697.53;;;2.62;100.00
11878;BME280;5998;42.676;23.268;2024-01-30T11:20:09;96710.31;;;2.82;100.00
11878;BME280;5998;42.676;23.268;2024-01-30T11:22:37;96703.28;;;2.92;100.00
11878;BME280;5998;42.676;23.268;2024-01-30T11:25:04;96711.31;;;2.59;100.00
11878;BME280;5998;42.676;23.268;2024-01-30T11:27:32;96702.75;;;2.07;100.00
11878;BME280;5998;42.676;23.268;2024-01-30T11:30:01;96707.72;;;2.04;100.00
11878;BME280;5998;42.676;23.268;2024-01-30T11:32:28;96696.50;;;2.30;100.00
11878;BME280;5998;42.676;23.268;2024-01-30T11:34:55;96696.72;;;2.28;100.00
11878;BME280;5998;42.676;23.268;2024-01-30T11:37:25;96672.19;;;1.76;100.00
11878;BME280;5998;42.676;23.268;2024-01-30T11:39:53;96706.44;;;2.06;100.00
11878;BME280;5998;42.676;23.268;2024-01-30T11:42:21;96708.44;;;2.61;100.00
11878;BME280;5998;42.676;23.268;2024-01-30T11:44:49;96714.34;;;2.84;100.00
11878;BME280;5998;42.676;23.268;2024-01-30T11:47:16;96690.69;;;3.05;100.00
11878;BME280;5998;42.676;23.268;2024-01-30T11:49:43;96700.09;;;3.34;100.00
11878;BME280;5998;42.676;23.268;2024-01-30T11:52:09;96692.56;;;3.26;100.00
11878;BME280;5998;42.676;23.268;2024-01-30T11:54:39;96691.25;;;3.07;100.00
11878;BME280;5998;42.676;23.268;2024-01-30T11:57:06;96688.81;;;2.67;100.00
11878;BME280;5998;42.676;23.268;2024-01-30T11:59:32;96689.72;;;2.39;100.00
11878;BME280;5998;42.676;23.268;2024-01-30T12:02:01;96688.66;;;2.23;100.00
11878;BME280;5998;42.676;23.268;2024-01-30T12:04:28;96666.28;;;2.19;100.00
11878;BME280;5998;42.676;23.268;2024-01-30T12:06:55;96675.72;;;2.10;100.00
11878;BME280;5998;42.676;23.268;2024-01-30T12:09:22;96666.84;;;2.05;100.00
11878;BME280;5998;42.676;23.268;2024-01-30T12:11:49;96661.75;;;2.53;100.00
11878;BME280;5998;42.676;23.268;2024-01-30T12:14:16;96652.28;;;2.79;100.00
11878;BME280;5998;42.676;23.268;2024-01-30T12:16:48;96653.88;;;2.96;100.00
11878;BME280;5998;42.676;23.268;2024-01-30T12:19:22;96647.66;;;3.34;100.00
11878;BME280;5998;42.676;23.268;2024-01-30T12:21:54;96654.41;;;3.20;100.00
11878;BME280;5998;42.676;23.268;2024-01-30T12:24:21;96653.81;;;2.75;100.00
11878;BME280;5998;42.676;23.268;2024-01-30T12:26:48;96648.66;;;2.47;100.00
11878;BME280;5998;42.676;23.268;2024-01-30T12:29:15;96651.72;;;2.38;100.00
11878;BME280;5998;42.676;23.268;2024-01-30T12:31:42;96643.56;;;2.45;100.00
11878;BME280;5998;42.676;23.268;2024-01-30T12:34:09;96643.91;;;2.32;100.00
11878;BME280;5998;42.676;23.268;2024-01-30T12:36:37;96648.41;;;2.15;100.00
11878;BME280;5998;42.676;23.268;2024-01-30T12:39:04;96625.19;;;2.44;100.00
11878;BME280;5998;42.676;23.268;2024-01-30T12:41:31;96629.88;;;2.75;100.00
11878;BME280;5998;42.676;23.268;2024-01-30T12:43:58;96631.06;;;2.84;100.00
11878;BME280;5998;42.676;23.268;2024-01-30T12:46:27;96623.44;;;2.71;100.00
11878;BME280;5998;42.676;23.268;2024-01-30T12:48:55;96618.00;;;2.61;100.00
11878;BME280;5998;42.676;23.268;2024-01-30T12:51:21;96639.56;;;2.64;100.00
11878;BME280;5998;42.676;23.268;2024-01-30T12:53:50;96637.81;;;2.91;100.00
11878;BME280;5998;42.676;23.268;2024-01-30T12:56:16;96614.72;;;2.75;100.00